sensor_id;sensor_type;location;lat;lon;timestamp;P1;durP1;ratioP1;P2;durP2;ratioP2
5418;SDS011;2732;52.092;11.556;2022-08-19T00:02:57;25.33;;;20.07;;
5418;SDS011;2732;52.092;11.556;2022-08-19T00:07:58;24.10;;;20.67;;
5418;SDS011;2732;52.092;11.556;2022-08-19T00:12:59;27.60;;;21.10;;
5418;SDS011;2732;52.092;11.556;2022-08-19T00:17:59;29.80;;;23.20;;
5418;SDS011;2732;52.092;11.556;2022-08-19T00:23:00;31.00;;;25.10;;
5418;SDS011;2732;52.092;11.556;2022-08-19T00:28:01;25.60;;;22.37;;
5418;SDS011;2732;52.092;11.556;2022-08-19T00:33:02;28.13;;;25.13;;
5418;SDS011;2732;52.092;11.556;2022-08-19T00:38:03;29.67;;;26.07;;
5418;SDS011;2732;52.092;11.556;2022-08-19T00:43:10;31.37;;;24.60;;
5418;SDS011;2732;52.092;11.556;2022-08-19T00:48:13;29.53;;;26.33;;
5418;SDS011;2732;52.092;11.556;2022-08-19T00:53:15;29.53;;;21.03;;
5418;SDS011;2732;52.092;11.556;2022-08-19T00:58:19;29.67;;;25.00;;
5418;SDS011;2732;52.092;11.556;2022-08-19T01:03:23;36.10;;;25.20;;
5418;SDS011;2732;52.092;11.556;2022-08-19T01:08:24;29.90;;;25.10;;
5418;SDS011;2732;52.092;11.556;2022-08-19T01:13:27;34.73;;;26.70;;
5418;SDS011;2732;52.092;11.556;2022-08-19T01:18:30;27.30;;;24.50;;
5418;SDS011;2732;52.092;11.556;2022-08-19T01:23:36;27.47;;;23.57;;
5418;SDS011;2732;52.092;11.556;2022-08-19T01:28:43;34.80;;;25.87;;
5418;SDS011;2732;52.092;11.556;2022-08-19T01:33:47;30.43;;;24.67;;
5418;SDS011;2732;52.092;11.556;2022-08-19T01:38:49;28.53;;;25.00;;
5418;SDS011;2732;52.092;11.556;2022-08-19T01:43:51;28.17;;;23.93;;
5418;SDS011;2732;52.092;11.556;2022-08-19T01:48:54;33.50;;;25.70;;
5418;SDS011;2732;52.092;11.556;2022-08-19T01:53:54;32.43;;;25.60;;
5418;SDS011;2732;52.092;11.556;2022-08-19T01:59:06;33.20;;;24.00;;
5418;SDS011;2732;52.092;11.556;2022-08-19T02:04:13;29.10;;;23.17;;
5418;SDS011;2732;52.092;11.556;2022-08-19T02:09:14;30.90;;;24.47;;
5418;SDS011;2732;52.092;11.556;2022-08-19T02:14:16;29.57;;;25.50;;
5418;SDS011;2732;52.092;11.556;2022-08-19T02:19:16;30.67;;;24.03;;
5418;SDS011;2732;52.092;11.556;2022-08-19T02:24:17;35.30;;;24.80;;
5418;SDS011;2732;52.092;11.556;2022-08-19T02:29:18;29.17;;;24.17;;
5418;SDS011;2732;52.092;11.556;2022-08-19T02:40:35;30.80;;;22.87;;
5418;SDS011;2732;52.092;11.556;2022-08-19T02:45:37;30.00;;;24.13;;
5418;SDS011;2732;52.092;11.556;2022-08-19T02:50:39;32.90;;;25.13;;
5418;SDS011;2732;52.092;11.556;2022-08-19T02:55:44;30.97;;;25.20;;
5418;SDS011;2732;52.092;11.556;2022-08-19T03:00:47;30.67;;;23.20;;
5418;SDS011;2732;52.092;11.556;2022-08-19T03:05:51;30.13;;;22.77;;
5418;SDS011;2732;52.092;11.556;2022-08-19T03:11:03;31.50;;;25.03;;
5418;SDS011;2732;52.092;11.556;2022-08-19T03:16:04;36.00;;;25.47;;
5418;SDS011;2732;52.092;11.556;2022-08-19T03:21:05;37.13;;;27.40;;
5418;SDS011;2732;52.092;11.556;2022-08-19T03:26:06;33.67;;;26.30;;
5418;SDS011;2732;52.092;11.556;2022-08-19T03:31:09;41.17;;;25.70;;
5418;SDS011;2732;52.092;11.556;2022-08-19T03:36:19;38.07;;;25.97;;
5418;SDS011;2732;52.092;11.556;2022-08-19T03:41:24;38.77;;;25.17;;
5418;SDS011;2732;52.092;11.556;2022-08-19T03:46:29;42.97;;;29.47;;
5418;SDS011;2732;52.092;11.556;2022-08-19T03:51:32;44.57;;;28.27;;
5418;SDS011;2732;52.092;11.556;2022-08-19T03:56:37;36.20;;;26.27;;
5418;SDS011;2732;52.092;11.556;2022-08-19T04:01:40;40.50;;;27.67;;
5418;SDS011;2732;52.092;11.556;2022-08-19T04:06:42;33.10;;;24.67;;
5418;SDS011;2732;52.092;11.556;2022-08-19T04:11:45;35.37;;;25.43;;
5418;SDS011;2732;52.092;11.556;2022-08-19T04:16:49;39.77;;;26.50;;
5418;SDS011;2732;52.092;11.556;2022-08-19T04:21:53;38.37;;;24.50;;
5418;SDS011;2732;52.092;11.556;2022-08-19T04:26:54;32.40;;;24.53;;
5418;SDS011;2732;52.092;11.556;2022-08-19T04:31:56;34.77;;;23.43;;
5418;SDS011;2732;52.092;11.556;2022-08-19T04:36:58;31.77;;;23.10;;
5418;SDS011;2732;52.092;11.556;2022-08-19T04:41:59;33.00;;;23.60;;
5418;SDS011;2732;52.092;11.556;2022-08-19T04:47:18;27.77;;;22.97;;
5418;SDS011;2732;52.092;11.556;2022-08-19T04:52:19;32.43;;;20.97;;
5418;SDS011;2732;52.092;11.556;2022-08-19T04:57:19;30.93;;;20.80;;
5418;SDS011;2732;52.092;11.556;2022-08-19T05:02:20;32.27;;;22.07;;
5418;SDS011;2732;52.092;11.556;2022-08-19T05:07:25;26.80;;;21.20;;
5418;SDS011;2732;52.092;11.556;2022-08-19T05:12:26;32.40;;;20.17;;
5418;SDS011;2732;52.092;11.556;2022-08-19T05:17:28;20.67;;;16.73;;
5418;SDS011;2732;52.092;11.556;2022-08-19T05:22:29;25.80;;;18.83;;
5418;SDS011;2732;52.092;11.556;2022-08-19T05:27:35;24.63;;;17.30;;
5418;SDS011;2732;52.092;11.556;2022-08-19T05:32:36;22.60;;;17.60;;
5418;SDS011;2732;52.092;11.556;2022-08-19T05:37:37;29.80;;;21.20;;
5418;SDS011;2732;52.092;11.556;2022-08-19T05:42:40;25.93;;;19.13;;
5418;SDS011;2732;52.092;11.556;2022-08-19T05:47:40;24.20;;;18.90;;
5418;SDS011;2732;52.092;11.556;2022-08-19T05:52:41;26.47;;;20.83;;
5418;SDS011;2732;52.092;11.556;2022-08-19T05:57:41;26.83;;;17.97;;
5418;SDS011;2732;52.092;11.556;2022-08-19T06:02:42;28.87;;;17.83;;
5418;SDS011;2732;52.092;11.556;2022-08-19T06:07:42;31.70;;;20.20;;
5418;SDS011;2732;52.092;11.556;2022-08-19T06:12:43;23.70;;;19.50;;
5418;SDS011;2732;52.092;11.556;2022-08-19T06:17:44;32.00;;;20.70;;
5418;SDS011;2732;52.092;11.556;2022-08-19T06:22:45;26.93;;;18.00;;
5418;SDS011;2732;52.092;11.556;2022-08-19T06:27:51;38.50;;;20.37;;
5418;SDS011;2732;52.092;11.556;2022-08-19T06:32:52;27.73;;;17.77;;
5418;SDS011;2732;52.092;11.556;2022-08-19T06:37:53;33.50;;;19.57;;
5418;SDS011;2732;52.092;11.556;2022-08-19T06:42:54;31.10;;;18.70;;
5418;SDS011;2732;52.092;11.556;2022-08-19T06:47:55;32.57;;;19.43;;
5418;SDS011;2732;52.092;11.556;2022-08-19T06:52:56;35.93;;;20.07;;
5418;SDS011;2732;52.092;11.556;2022-08-19T06:57:57;26.40;;;18.40;;
5418;SDS011;2732;52.092;11.556;2022-08-19T07:02:57;26.43;;;18.73;;
5418;SDS011;2732;52.092;11.556;2022-08-19T07:07:58;30.07;;;20.60;;
5418;SDS011;2732;52.092;11.556;2022-08-19T07:12:59;28.40;;;20.63;;
5418;SDS011;2732;52.092;11.556;2022-08-19T07:18:00;24.83;;;19.20;;
5418;SDS011;2732;52.092;11.556;2022-08-19T07:23:00;27.63;;;22.07;;
5418;SDS011;2732;52.092;11.556;2022-08-19T07:28:01;32.23;;;20.47;;
5418;SDS011;2732;52.092;11.556;2022-08-19T07:33:02;29.90;;;20.60;;
5418;SDS011;2732;52.092;11.556;2022-08-19T07:38:04;33.87;;;21.17;;
5418;SDS011;2732;52.092;11.556;2022-08-19T07:43:04;31.27;;;20.10;;
5418;SDS011;2732;52.092;11.556;2022-08-19T07:48:05;30.33;;;20.57;;
5418;SDS011;2732;52.092;11.556;2022-08-19T07:53:06;33.57;;;20.60;;
5418;SDS011;2732;52.092;11.556;2022-08-19T07:58:07;33.00;;;20.80;;
5418;SDS011;2732;52.092;11.556;2022-08-19T08:03:07;23.17;;;17.90;;
5418;SDS011;2732;52.092;11.556;2022-08-19T08:08:09;25.30;;;20.80;;
5418;SDS011;2732;52.092;11.556;2022-08-19T08:13:23;31.17;;;19.90;;
5418;SDS011;2732;52.092;11.556;2022-08-19T08:18:25;27.30;;;19.80;;
5418;SDS011;2732;52.092;11.556;2022-08-19T08:23:25;25.17;;;18.10;;
5418;SDS011;2732;52.092;11.556;2022-08-19T08:28:26;29.60;;;19.07;;
5418;SDS011;2732;52.092;11.556;2022-08-19T08:33:28;23.10;;;16.87;;
5418;SDS011;2732;52.092;11.556;2022-08-19T08:38:30;21.50;;;16.27;;
5418;SDS011;2732;52.092;11.556;2022-08-19T08:48:39;16.17;;;14.43;;
5418;SDS011;2732;52.092;11.556;2022-08-19T08:54:05;21.23;;;14.63;;
5418;SDS011;2732;52.092;11.556;2022-08-19T08:59:19;22.20;;;15.20;;
5418;SDS011;2732;52.092;11.556;2022-08-19T09:04:34;23.30;;;14.80;;
5418;SDS011;2732;52.092;11.556;2022-08-19T09:09:40;19.90;;;15.03;;
5418;SDS011;2732;52.092;11.556;2022-08-19T09:14:53;22.87;;;15.07;;
5418;SDS011;2732;52.092;11.556;2022-08-19T09:25:11;19.67;;;15.00;;
5418;SDS011;2732;52.092;11.556;2022-08-19T09:30:16;21.00;;;14.70;;
5418;SDS011;2732;52.092;11.556;2022-08-19T09:35:23;18.33;;;15.40;;
5418;SDS011;2732;52.092;11.556;2022-08-19T09:40:29;24.00;;;15.63;;
5418;SDS011;2732;52.092;11.556;2022-08-19T09:45:30;21.30;;;15.67;;
5418;SDS011;2732;52.092;11.556;2022-08-19T09:50:31;19.43;;;14.57;;
5418;SDS011;2732;52.092;11.556;2022-08-19T09:55:41;18.43;;;15.27;;
5418;SDS011;2732;52.092;11.556;2022-08-19T10:00:43;19.37;;;14.27;;
5418;SDS011;2732;52.092;11.556;2022-08-19T10:05:43;20.53;;;15.27;;
5418;SDS011;2732;52.092;11.556;2022-08-19T10:10:50;17.43;;;14.43;;
5418;SDS011;2732;52.092;11.556;2022-08-19T10:15:52;20.07;;;14.07;;
5418;SDS011;2732;52.092;11.556;2022-08-19T10:21:12;18.70;;;14.23;;
5418;SDS011;2732;52.092;11.556;2022-08-19T10:26:24;22.60;;;15.40;;
5418;SDS011;2732;52.092;11.556;2022-08-19T10:31:29;22.43;;;14.90;;
5418;SDS011;2732;52.092;11.556;2022-08-19T10:36:34;22.77;;;15.63;;
5418;SDS011;2732;52.092;11.556;2022-08-19T10:41:37;18.03;;;13.53;;
5418;SDS011;2732;52.092;11.556;2022-08-19T10:46:39;21.70;;;14.43;;
5418;SDS011;2732;52.092;11.556;2022-08-19T10:51:42;17.70;;;14.30;;
5418;SDS011;2732;52.092;11.556;2022-08-19T10:57:01;24.13;;;12.63;;
5418;SDS011;2732;52.092;11.556;2022-08-19T11:02:04;17.60;;;12.80;;
5418;SDS011;2732;52.092;11.556;2022-08-19T11:07:06;14.77;;;12.67;;
5418;SDS011;2732;52.092;11.556;2022-08-19T11:12:08;24.07;;;14.13;;
5418;SDS011;2732;52.092;11.556;2022-08-19T11:17:09;17.73;;;12.10;;
5418;SDS011;2732;52.092;11.556;2022-08-19T11:22:13;20.10;;;13.07;;
5418;SDS011;2732;52.092;11.556;2022-08-19T11:27:14;29.33;;;13.03;;
5418;SDS011;2732;52.092;11.556;2022-08-19T11:32:14;15.77;;;12.10;;
5418;SDS011;2732;52.092;11.556;2022-08-19T11:37:16;14.50;;;12.10;;
5418;SDS011;2732;52.092;11.556;2022-08-19T11:42:16;13.60;;;10.07;;
5418;SDS011;2732;52.092;11.556;2022-08-19T11:47:36;14.13;;;10.80;;
5418;SDS011;2732;52.092;11.556;2022-08-19T11:52:38;13.80;;;10.10;;
5418;SDS011;2732;52.092;11.556;2022-08-19T11:57:39;12.33;;;10.97;;
5418;SDS011;2732;52.092;11.556;2022-08-19T12:02:41;14.97;;;11.60;;
5418;SDS011;2732;52.092;11.556;2022-08-19T12:07:42;21.60;;;12.30;;
5418;SDS011;2732;52.092;11.556;2022-08-19T12:12:43;15.17;;;12.70;;
5418;SDS011;2732;52.092;11.556;2022-08-19T12:17:45;13.50;;;12.10;;
5418;SDS011;2732;52.092;11.556;2022-08-19T12:22:46;14.47;;;12.00;;
5418;SDS011;2732;52.092;11.556;2022-08-19T12:27:48;12.20;;;10.90;;
5418;SDS011;2732;52.092;11.556;2022-08-19T12:32:49;15.50;;;11.40;;
5418;SDS011;2732;52.092;11.556;2022-08-19T12:37:51;15.47;;;12.77;;
5418;SDS011;2732;52.092;11.556;2022-08-19T12:42:52;12.57;;;10.60;;
5418;SDS011;2732;52.092;11.556;2022-08-19T12:47:54;13.37;;;11.93;;
5418;SDS011;2732;52.092;11.556;2022-08-19T12:52:54;12.80;;;10.73;;
5418;SDS011;2732;52.092;11.556;2022-08-19T12:57:57;14.10;;;12.20;;
5418;SDS011;2732;52.092;11.556;2022-08-19T13:02:58;18.13;;;12.60;;
5418;SDS011;2732;52.092;11.556;2022-08-19T13:07:59;14.20;;;11.47;;
5418;SDS011;2732;52.092;11.556;2022-08-19T13:13:01;11.97;;;10.77;;
5418;SDS011;2732;52.092;11.556;2022-08-19T13:18:06;12.47;;;10.20;;
5418;SDS011;2732;52.092;11.556;2022-08-19T13:23:10;11.97;;;10.70;;
5418;SDS011;2732;52.092;11.556;2022-08-19T13:28:10;13.27;;;10.90;;
5418;SDS011;2732;52.092;11.556;2022-08-19T13:33:12;9.50;;;8.50;;
5418;SDS011;2732;52.092;11.556;2022-08-19T13:38:17;9.77;;;8.60;;
5418;SDS011;2732;52.092;11.556;2022-08-19T13:43:22;11.40;;;8.00;;
5418;SDS011;2732;52.092;11.556;2022-08-19T13:48:26;11.23;;;7.53;;
5418;SDS011;2732;52.092;11.556;2022-08-19T13:53:26;12.07;;;8.70;;
5418;SDS011;2732;52.092;11.556;2022-08-19T13:58:27;8.97;;;8.17;;
5418;SDS011;2732;52.092;11.556;2022-08-19T14:03:27;8.87;;;7.77;;
5418;SDS011;2732;52.092;11.556;2022-08-19T14:08:28;10.03;;;7.80;;
5418;SDS011;2732;52.092;11.556;2022-08-19T14:13:33;7.10;;;6.50;;
5418;SDS011;2732;52.092;11.556;2022-08-19T14:18:34;8.03;;;7.23;;
5418;SDS011;2732;52.092;11.556;2022-08-19T14:23:34;7.30;;;6.57;;
5418;SDS011;2732;52.092;11.556;2022-08-19T14:28:36;7.37;;;6.83;;
5418;SDS011;2732;52.092;11.556;2022-08-19T14:33:37;7.63;;;6.93;;
5418;SDS011;2732;52.092;11.556;2022-08-19T14:38:38;9.10;;;7.50;;
5418;SDS011;2732;52.092;11.556;2022-08-19T14:43:39;8.90;;;7.03;;
5418;SDS011;2732;52.092;11.556;2022-08-19T14:48:41;7.97;;;7.17;;
5418;SDS011;2732;52.092;11.556;2022-08-19T14:53:42;7.83;;;7.13;;
5418;SDS011;2732;52.092;11.556;2022-08-19T14:58:43;7.00;;;6.30;;
5418;SDS011;2732;52.092;11.556;2022-08-19T15:03:44;9.83;;;7.60;;
5418;SDS011;2732;52.092;11.556;2022-08-19T15:08:46;7.50;;;6.70;;
5418;SDS011;2732;52.092;11.556;2022-08-19T15:13:46;9.03;;;7.60;;
5418;SDS011;2732;52.092;11.556;2022-08-19T15:18:52;10.60;;;7.50;;
5418;SDS011;2732;52.092;11.556;2022-08-19T15:23:57;8.80;;;7.23;;
5418;SDS011;2732;52.092;11.556;2022-08-19T15:29:00;7.57;;;6.80;;
5418;SDS011;2732;52.092;11.556;2022-08-19T15:34:02;6.40;;;5.90;;
5418;SDS011;2732;52.092;11.556;2022-08-19T15:39:06;8.67;;;6.40;;
5418;SDS011;2732;52.092;11.556;2022-08-19T15:44:10;6.97;;;6.37;;
5418;SDS011;2732;52.092;11.556;2022-08-19T15:49:14;7.40;;;6.63;;
5418;SDS011;2732;52.092;11.556;2022-08-19T15:54:18;9.00;;;6.77;;
5418;SDS011;2732;52.092;11.556;2022-08-19T15:59:20;7.80;;;7.00;;
5418;SDS011;2732;52.092;11.556;2022-08-19T16:04:39;9.63;;;6.40;;
5418;SDS011;2732;52.092;11.556;2022-08-19T16:09:58;9.50;;;6.30;;
5418;SDS011;2732;52.092;11.556;2022-08-19T16:14:59;9.13;;;7.20;;
5418;SDS011;2732;52.092;11.556;2022-08-19T16:26:16;6.83;;;6.17;;
5418;SDS011;2732;52.092;11.556;2022-08-19T16:31:18;8.33;;;7.40;;
5418;SDS011;2732;52.092;11.556;2022-08-19T16:36:19;6.57;;;6.03;;
5418;SDS011;2732;52.092;11.556;2022-08-19T16:41:23;9.00;;;6.60;;
5418;SDS011;2732;52.092;11.556;2022-08-19T16:46:24;7.27;;;6.67;;
5418;SDS011;2732;52.092;11.556;2022-08-19T16:51:26;7.47;;;6.77;;
5418;SDS011;2732;52.092;11.556;2022-08-19T16:56:27;7.67;;;6.30;;
5418;SDS011;2732;52.092;11.556;2022-08-19T17:01:28;9.33;;;8.37;;
5418;SDS011;2732;52.092;11.556;2022-08-19T17:06:29;12.00;;;7.67;;
5418;SDS011;2732;52.092;11.556;2022-08-19T17:11:30;7.50;;;6.57;;
5418;SDS011;2732;52.092;11.556;2022-08-19T17:16:33;10.33;;;6.97;;
5418;SDS011;2732;52.092;11.556;2022-08-19T17:21:36;8.03;;;6.50;;
5418;SDS011;2732;52.092;11.556;2022-08-19T17:26:37;8.43;;;6.40;;
5418;SDS011;2732;52.092;11.556;2022-08-19T17:31:38;6.87;;;6.17;;
5418;SDS011;2732;52.092;11.556;2022-08-19T17:36:39;7.43;;;6.60;;
5418;SDS011;2732;52.092;11.556;2022-08-19T17:41:39;12.90;;;7.70;;
5418;SDS011;2732;52.092;11.556;2022-08-19T17:46:41;12.03;;;7.40;;
5418;SDS011;2732;52.092;11.556;2022-08-19T17:51:44;12.83;;;7.47;;
5418;SDS011;2732;52.092;11.556;2022-08-19T17:56:46;7.77;;;5.40;;
5418;SDS011;2732;52.092;11.556;2022-08-19T18:01:47;10.30;;;6.80;;
5418;SDS011;2732;52.092;11.556;2022-08-19T18:06:47;7.70;;;6.43;;
5418;SDS011;2732;52.092;11.556;2022-08-19T18:11:48;6.90;;;6.23;;
5418;SDS011;2732;52.092;11.556;2022-08-19T18:16:49;7.10;;;6.40;;
5418;SDS011;2732;52.092;11.556;2022-08-19T18:21:50;9.33;;;7.30;;
5418;SDS011;2732;52.092;11.556;2022-08-19T18:26:51;7.47;;;6.77;;
5418;SDS011;2732;52.092;11.556;2022-08-19T18:31:52;9.13;;;6.53;;
5418;SDS011;2732;52.092;11.556;2022-08-19T18:36:55;9.20;;;6.30;;
5418;SDS011;2732;52.092;11.556;2022-08-19T18:41:56;7.73;;;7.10;;
5418;SDS011;2732;52.092;11.556;2022-08-19T18:47:14;9.80;;;7.60;;
5418;SDS011;2732;52.092;11.556;2022-08-19T18:52:34;7.50;;;6.40;;
5418;SDS011;2732;52.092;11.556;2022-08-19T18:57:36;6.70;;;6.20;;
5418;SDS011;2732;52.092;11.556;2022-08-19T19:02:36;8.60;;;7.67;;
5418;SDS011;2732;52.092;11.556;2022-08-19T19:07:38;9.73;;;6.90;;
5418;SDS011;2732;52.092;11.556;2022-08-19T19:12:40;8.80;;;7.10;;
5418;SDS011;2732;52.092;11.556;2022-08-19T19:17:43;9.43;;;7.93;;
5418;SDS011;2732;52.092;11.556;2022-08-19T19:22:45;8.30;;;7.50;;
5418;SDS011;2732;52.092;11.556;2022-08-19T19:27:46;9.67;;;7.23;;
5418;SDS011;2732;52.092;11.556;2022-08-19T19:32:47;9.80;;;8.53;;
5418;SDS011;2732;52.092;11.556;2022-08-19T19:37:47;13.93;;;8.87;;
5418;SDS011;2732;52.092;11.556;2022-08-19T19:42:51;10.00;;;7.83;;
5418;SDS011;2732;52.092;11.556;2022-08-19T19:47:53;8.80;;;7.90;;
5418;SDS011;2732;52.092;11.556;2022-08-19T19:52:53;10.97;;;9.20;;
5418;SDS011;2732;52.092;11.556;2022-08-19T19:57:54;9.60;;;8.37;;
5418;SDS011;2732;52.092;11.556;2022-08-19T20:02:56;14.33;;;8.20;;
5418;SDS011;2732;52.092;11.556;2022-08-19T20:07:57;14.10;;;8.50;;
5418;SDS011;2732;52.092;11.556;2022-08-19T20:13:16;10.47;;;9.10;;
5418;SDS011;2732;52.092;11.556;2022-08-19T20:18:17;10.80;;;9.80;;
5418;SDS011;2732;52.092;11.556;2022-08-19T20:23:21;10.17;;;9.27;;
5418;SDS011;2732;52.092;11.556;2022-08-19T20:28:22;14.70;;;12.87;;
5418;SDS011;2732;52.092;11.556;2022-08-19T20:33:23;13.23;;;11.90;;
5418;SDS011;2732;52.092;11.556;2022-08-19T20:38:24;13.40;;;12.20;;
5418;SDS011;2732;52.092;11.556;2022-08-19T20:43:24;15.23;;;12.87;;
5418;SDS011;2732;52.092;11.556;2022-08-19T20:48:25;20.10;;;15.27;;
5418;SDS011;2732;52.092;11.556;2022-08-19T20:53:25;19.13;;;13.90;;
5418;SDS011;2732;52.092;11.556;2022-08-19T20:58:26;17.50;;;13.27;;
5418;SDS011;2732;52.092;11.556;2022-08-19T21:03:28;18.50;;;13.10;;
5418;SDS011;2732;52.092;11.556;2022-08-19T21:08:32;19.43;;;14.43;;
5418;SDS011;2732;52.092;11.556;2022-08-19T21:13:33;16.57;;;14.67;;
5418;SDS011;2732;52.092;11.556;2022-08-19T21:18:34;14.37;;;12.80;;
5418;SDS011;2732;52.092;11.556;2022-08-19T21:23:35;15.93;;;13.13;;
5418;SDS011;2732;52.092;11.556;2022-08-19T21:28:35;20.10;;;14.60;;
5418;SDS011;2732;52.092;11.556;2022-08-19T21:33:37;20.87;;;14.13;;
5418;SDS011;2732;52.092;11.556;2022-08-19T21:38:38;18.00;;;13.33;;
5418;SDS011;2732;52.092;11.556;2022-08-19T21:43:40;16.30;;;12.73;;
5418;SDS011;2732;52.092;11.556;2022-08-19T21:48:40;24.13;;;14.90;;
5418;SDS011;2732;52.092;11.556;2022-08-19T21:53:41;22.87;;;15.20;;
5418;SDS011;2732;52.092;11.556;2022-08-19T21:58:42;24.00;;;16.27;;
5418;SDS011;2732;52.092;11.556;2022-08-19T22:03:43;22.87;;;16.67;;
5418;SDS011;2732;52.092;11.556;2022-08-19T22:08:44;22.70;;;17.50;;
5418;SDS011;2732;52.092;11.556;2022-08-19T22:13:45;22.63;;;16.17;;
5418;SDS011;2732;52.092;11.556;2022-08-19T22:18:46;22.30;;;16.30;;
5418;SDS011;2732;52.092;11.556;2022-08-19T22:23:49;22.83;;;17.60;;
5418;SDS011;2732;52.092;11.556;2022-08-19T22:28:50;21.47;;;18.27;;
5418;SDS011;2732;52.092;11.556;2022-08-19T22:33:51;23.60;;;17.50;;
5418;SDS011;2732;52.092;11.556;2022-08-19T22:38:51;22.13;;;18.70;;
5418;SDS011;2732;52.092;11.556;2022-08-19T22:43:53;24.93;;;19.47;;
5418;SDS011;2732;52.092;11.556;2022-08-19T22:48:53;28.80;;;19.77;;
5418;SDS011;2732;52.092;11.556;2022-08-19T22:53:54;26.83;;;19.33;;
5418;SDS011;2732;52.092;11.556;2022-08-19T22:58:55;32.87;;;22.63;;
5418;SDS011;2732;52.092;11.556;2022-08-19T23:03:56;29.27;;;21.67;;
5418;SDS011;2732;52.092;11.556;2022-08-19T23:08:58;28.43;;;22.40;;
5418;SDS011;2732;52.092;11.556;2022-08-19T23:13:58;33.83;;;22.60;;
5418;SDS011;2732;52.092;11.556;2022-08-19T23:18:59;29.00;;;22.27;;
5418;SDS011;2732;52.092;11.556;2022-08-19T23:24:00;31.53;;;20.63;;
5418;SDS011;2732;52.092;11.556;2022-08-19T23:29:01;27.23;;;20.60;;
5418;SDS011;2732;52.092;11.556;2022-08-19T23:34:22;26.43;;;20.90;;
5418;SDS011;2732;52.092;11.556;2022-08-19T23:39:22;35.27;;;18.50;;
5418;SDS011;2732;52.092;11.556;2022-08-19T23:44:23;29.67;;;19.87;;
5418;SDS011;2732;52.092;11.556;2022-08-19T23:49:24;23.60;;;19.57;;
5418;SDS011;2732;52.092;11.556;2022-08-19T23:54:25;26.90;;;20.20;;
5418;SDS011;2732;52.092;11.556;2022-08-19T23:59:25;27.30;;;21.60;;
